sensor_id;sensor_type;location;lat;lon;timestamp;temperature;humidity
22185;DHT22;11258;52.516;13.318;2023-08-20T00:00:16;27.20;99.90
22185;DHT22;11258;52.516;13.318;2023-08-20T00:02:43;27.30;99.90
22185;DHT22;11258;52.516;13.318;2023-08-20T00:05:11;27.20;99.90
22185;DHT22;11258;52.516;13.318;2023-08-20T00:07:36;27.30;99.90
22185;DHT22;11258;52.516;13.318;2023-08-20T00:10:03;27.30;99.90
22185;DHT22;11258;52.516;13.318;2023-08-20T00:12:30;27.20;99.90
22185;DHT22;11258;52.516;13.318;2023-08-20T00:14:56;27.00;99.90
22185;DHT22;11258;52.516;13.318;2023-08-20T00:17:24;27.00;99.90
22185;DHT22;11258;52.516;13.318;2023-08-20T00:19:53;27.00;99.90
22185;DHT22;11258;52.516;13.318;2023-08-20T00:22:21;27.00;99.90
22185;DHT22;11258;52.516;13.318;2023-08-20T00:24:47;27.00;99.90
22185;DHT22;11258;52.516;13.318;2023-08-20T00:27:12;26.90;99.90
22185;DHT22;11258;52.516;13.318;2023-08-20T00:29:38;26.90;99.90
22185;DHT22;11258;52.516;13.318;2023-08-20T00:32:04;26.90;99.90
22185;DHT22;11258;52.516;13.318;2023-08-20T00:34:29;26.80;99.90
22185;DHT22;11258;52.516;13.318;2023-08-20T00:36:55;26.80;99.90
22185;DHT22;11258;52.516;13.318;2023-08-20T00:39:20;26.80;99.90
22185;DHT22;11258;52.516;13.318;2023-08-20T00:41:46;26.70;99.90
22185;DHT22;11258;52.516;13.318;2023-08-20T00:44:12;26.70;99.90
22185;DHT22;11258;52.516;13.318;2023-08-20T00:46:37;26.80;99.90
22185;DHT22;11258;52.516;13.318;2023-08-20T00:49:03;26.80;99.90
22185;DHT22;11258;52.516;13.318;2023-08-20T00:51:32;26.80;99.90
22185;DHT22;11258;52.516;13.318;2023-08-20T00:53:57;26.90;99.90
22185;DHT22;11258;52.516;13.318;2023-08-20T00:56:23;26.90;99.90
22185;DHT22;11258;52.516;13.318;2023-08-20T00:58:49;26.90;99.90
22185;DHT22;11258;52.516;13.318;2023-08-20T01:01:14;26.90;99.90
22185;DHT22;11258;52.516;13.318;2023-08-20T01:03:40;26.90;99.90
22185;DHT22;11258;52.516;13.318;2023-08-20T01:09:37;26.70;99.90
22185;DHT22;11258;52.516;13.318;2023-08-20T01:12:00;26.70;99.90
22185;DHT22;11258;52.516;13.318;2023-08-20T01:14:26;26.70;99.90
22185;DHT22;11258;52.516;13.318;2023-08-20T01:16:52;26.60;99.90
22185;DHT22;11258;52.516;13.318;2023-08-20T01:19:19;26.60;99.90
22185;DHT22;11258;52.516;13.318;2023-08-20T01:27:08;26.50;99.90
22185;DHT22;11258;52.516;13.318;2023-08-20T01:29:36;26.40;99.90
22185;DHT22;11258;52.516;13.318;2023-08-20T01:32:04;26.30;99.90
22185;DHT22;11258;52.516;13.318;2023-08-20T01:34:30;26.30;99.90
22185;DHT22;11258;52.516;13.318;2023-08-20T01:36:56;26.20;99.90
22185;DHT22;11258;52.516;13.318;2023-08-20T01:39:21;26.30;99.90
22185;DHT22;11258;52.516;13.318;2023-08-20T01:41:47;26.10;99.90
22185;DHT22;11258;52.516;13.318;2023-08-20T01:44:13;26.10;99.90
22185;DHT22;11258;52.516;13.318;2023-08-20T01:46:39;26.10;99.90
22185;DHT22;11258;52.516;13.318;2023-08-20T01:49:04;26.10;99.90
22185;DHT22;11258;52.516;13.318;2023-08-20T01:51:30;26.00;99.90
22185;DHT22;11258;52.516;13.318;2023-08-20T01:53:55;26.00;99.90
22185;DHT22;11258;52.516;13.318;2023-08-20T01:56:21;25.90;99.90
22185;DHT22;11258;52.516;13.318;2023-08-20T01:58:47;25.90;99.90
22185;DHT22;11258;52.516;13.318;2023-08-20T02:01:12;25.90;99.90
22185;DHT22;11258;52.516;13.318;2023-08-20T02:03:38;26.00;99.90
22185;DHT22;11258;52.516;13.318;2023-08-20T02:06:04;25.90;99.90
22185;DHT22;11258;52.516;13.318;2023-08-20T02:08:30;25.90;99.90
22185;DHT22;11258;52.516;13.318;2023-08-20T02:11:03;25.80;99.90
22185;DHT22;11258;52.516;13.318;2023-08-20T02:13:29;25.80;99.90
22185;DHT22;11258;52.516;13.318;2023-08-20T02:16:12;25.80;99.90
22185;DHT22;11258;52.516;13.318;2023-08-20T02:18:38;25.80;99.90
22185;DHT22;11258;52.516;13.318;2023-08-20T02:21:03;25.70;99.90
22185;DHT22;11258;52.516;13.318;2023-08-20T02:23:29;25.70;99.90
22185;DHT22;11258;52.516;13.318;2023-08-20T02:25:55;25.70;99.90
22185;DHT22;11258;52.516;13.318;2023-08-20T02:28:20;25.70;99.90
22185;DHT22;11258;52.516;13.318;2023-08-20T02:30:46;25.60;99.90
22185;DHT22;11258;52.516;13.318;2023-08-20T02:33:12;25.60;99.90
22185;DHT22;11258;52.516;13.318;2023-08-20T02:35:38;25.60;99.90
22185;DHT22;11258;52.516;13.318;2023-08-20T02:38:05;25.50;99.90
22185;DHT22;11258;52.516;13.318;2023-08-20T02:40:31;25.50;99.90
22185;DHT22;11258;52.516;13.318;2023-08-20T02:42:57;25.50;99.90
22185;DHT22;11258;52.516;13.318;2023-08-20T02:45:22;25.50;99.90
22185;DHT22;11258;52.516;13.318;2023-08-20T02:47:48;25.40;99.90
22185;DHT22;11258;52.516;13.318;2023-08-20T02:50:15;25.40;99.90
22185;DHT22;11258;52.516;13.318;2023-08-20T02:52:42;25.40;99.90
22185;DHT22;11258;52.516;13.318;2023-08-20T02:55:08;25.40;99.90
22185;DHT22;11258;52.516;13.318;2023-08-20T02:57:33;25.30;99.90
22185;DHT22;11258;52.516;13.318;2023-08-20T02:59:59;25.30;99.90
22185;DHT22;11258;52.516;13.318;2023-08-20T03:02:24;25.30;99.90
22185;DHT22;11258;52.516;13.318;2023-08-20T03:04:50;25.30;99.90
22185;DHT22;11258;52.516;13.318;2023-08-20T03:07:16;25.20;99.90
22185;DHT22;11258;52.516;13.318;2023-08-20T03:09:41;25.20;99.90
22185;DHT22;11258;52.516;13.318;2023-08-20T03:12:07;25.10;99.90
22185;DHT22;11258;52.516;13.318;2023-08-20T03:14:33;25.10;99.90
22185;DHT22;11258;52.516;13.318;2023-08-20T03:16:58;25.10;99.90
22185;DHT22;11258;52.516;13.318;2023-08-20T03:19:24;25.10;99.90
22185;DHT22;11258;52.516;13.318;2023-08-20T03:21:49;25.10;99.90
22185;DHT22;11258;52.516;13.318;2023-08-20T03:24:15;25.00;99.90
22185;DHT22;11258;52.516;13.318;2023-08-20T03:26:41;24.90;99.90
22185;DHT22;11258;52.516;13.318;2023-08-20T03:29:06;25.00;99.90
22185;DHT22;11258;52.516;13.318;2023-08-20T03:31:32;24.90;99.90
22185;DHT22;11258;52.516;13.318;2023-08-20T03:33:57;24.90;99.90
22185;DHT22;11258;52.516;13.318;2023-08-20T03:36:23;24.90;99.90
22185;DHT22;11258;52.516;13.318;2023-08-20T03:38:49;24.90;99.90
22185;DHT22;11258;52.516;13.318;2023-08-20T03:41:14;24.80;99.90
22185;DHT22;11258;52.516;13.318;2023-08-20T03:43:40;24.70;99.90
22185;DHT22;11258;52.516;13.318;2023-08-20T03:46:05;24.60;99.90
22185;DHT22;11258;52.516;13.318;2023-08-20T03:48:32;24.60;99.90
22185;DHT22;11258;52.516;13.318;2023-08-20T03:50:57;24.60;99.90
22185;DHT22;11258;52.516;13.318;2023-08-20T03:53:23;24.60;99.90
22185;DHT22;11258;52.516;13.318;2023-08-20T03:55:49;24.60;99.90
22185;DHT22;11258;52.516;13.318;2023-08-20T03:58:15;24.60;99.90
22185;DHT22;11258;52.516;13.318;2023-08-20T04:00:40;24.70;99.90
22185;DHT22;11258;52.516;13.318;2023-08-20T04:03:06;24.60;99.90
22185;DHT22;11258;52.516;13.318;2023-08-20T04:05:38;24.60;99.90
22185;DHT22;11258;52.516;13.318;2023-08-20T04:08:04;24.60;99.90
22185;DHT22;11258;52.516;13.318;2023-08-20T04:10:30;24.50;99.90
22185;DHT22;11258;52.516;13.318;2023-08-20T04:12:56;24.60;99.90
22185;DHT22;11258;52.516;13.318;2023-08-20T04:15:22;24.50;99.90
22185;DHT22;11258;52.516;13.318;2023-08-20T04:17:47;24.60;99.90
22185;DHT22;11258;52.516;13.318;2023-08-20T04:20:14;24.60;99.90
22185;DHT22;11258;52.516;13.318;2023-08-20T04:22:39;24.50;99.90
22185;DHT22;11258;52.516;13.318;2023-08-20T04:25:06;24.60;99.90
22185;DHT22;11258;52.516;13.318;2023-08-20T04:27:31;24.60;99.90
22185;DHT22;11258;52.516;13.318;2023-08-20T04:29:57;24.60;99.90
22185;DHT22;11258;52.516;13.318;2023-08-20T04:32:23;24.60;99.90
22185;DHT22;11258;52.516;13.318;2023-08-20T04:34:48;24.90;99.90
22185;DHT22;11258;52.516;13.318;2023-08-20T04:37:15;25.00;99.90
22185;DHT22;11258;52.516;13.318;2023-08-20T04:39:40;25.20;99.90
22185;DHT22;11258;52.516;13.318;2023-08-20T04:42:06;26.40;99.90
22185;DHT22;11258;52.516;13.318;2023-08-20T04:44:32;27.30;99.90
22185;DHT22;11258;52.516;13.318;2023-08-20T04:46:57;28.00;99.90
22185;DHT22;11258;52.516;13.318;2023-08-20T04:49:23;28.60;99.90
22185;DHT22;11258;52.516;13.318;2023-08-20T04:51:51;28.60;99.90
22185;DHT22;11258;52.516;13.318;2023-08-20T04:54:17;28.90;99.90
22185;DHT22;11258;52.516;13.318;2023-08-20T04:56:43;29.00;99.90
22185;DHT22;11258;52.516;13.318;2023-08-20T04:59:08;28.70;99.90
22185;DHT22;11258;52.516;13.318;2023-08-20T05:01:34;28.30;99.90
22185;DHT22;11258;52.516;13.318;2023-08-20T05:03:59;27.80;99.90
22185;DHT22;11258;52.516;13.318;2023-08-20T05:06:25;27.70;99.90
22185;DHT22;11258;52.516;13.318;2023-08-20T05:08:51;27.40;99.90
22185;DHT22;11258;52.516;13.318;2023-08-20T05:11:16;27.00;99.90
22185;DHT22;11258;52.516;13.318;2023-08-20T05:13:44;27.00;99.90
22185;DHT22;11258;52.516;13.318;2023-08-20T05:16:10;26.80;99.90
22185;DHT22;11258;52.516;13.318;2023-08-20T05:18:36;27.00;99.90
22185;DHT22;11258;52.516;13.318;2023-08-20T05:21:01;27.00;99.90
22185;DHT22;11258;52.516;13.318;2023-08-20T05:23:27;27.40;99.90
22185;DHT22;11258;52.516;13.318;2023-08-20T05:25:52;27.90;99.90
22185;DHT22;11258;52.516;13.318;2023-08-20T05:28:18;28.20;99.90
22185;DHT22;11258;52.516;13.318;2023-08-20T05:30:44;28.30;99.90
22185;DHT22;11258;52.516;13.318;2023-08-20T05:33:09;28.20;99.90
22185;DHT22;11258;52.516;13.318;2023-08-20T05:35:35;28.00;99.90
22185;DHT22;11258;52.516;13.318;2023-08-20T05:38:01;27.60;99.90
22185;DHT22;11258;52.516;13.318;2023-08-20T05:40:26;27.40;99.90
22185;DHT22;11258;52.516;13.318;2023-08-20T05:42:52;27.00;99.90
22185;DHT22;11258;52.516;13.318;2023-08-20T05:45:18;26.70;99.90
22185;DHT22;11258;52.516;13.318;2023-08-20T05:47:43;26.60;99.90
22185;DHT22;11258;52.516;13.318;2023-08-20T05:50:09;26.50;99.90
22185;DHT22;11258;52.516;13.318;2023-08-20T05:52:34;26.40;99.90
22185;DHT22;11258;52.516;13.318;2023-08-20T05:55:00;26.20;99.90
22185;DHT22;11258;52.516;13.318;2023-08-20T05:57:26;26.20;99.90
22185;DHT22;11258;52.516;13.318;2023-08-20T05:59:51;26.20;99.90
22185;DHT22;11258;52.516;13.318;2023-08-20T06:02:17;26.40;99.90
22185;DHT22;11258;52.516;13.318;2023-08-20T06:04:45;26.40;99.90
22185;DHT22;11258;52.516;13.318;2023-08-20T06:07:11;26.40;99.90
22185;DHT22;11258;52.516;13.318;2023-08-20T06:09:36;26.30;99.90
22185;DHT22;11258;52.516;13.318;2023-08-20T06:12:02;26.10;99.90
22185;DHT22;11258;52.516;13.318;2023-08-20T06:14:27;26.00;99.90
22185;DHT22;11258;52.516;13.318;2023-08-20T06:16:53;25.90;99.90
22185;DHT22;11258;52.516;13.318;2023-08-20T06:19:18;25.80;99.90
22185;DHT22;11258;52.516;13.318;2023-08-20T06:21:44;25.90;99.90
22185;DHT22;11258;52.516;13.318;2023-08-20T06:24:10;26.00;99.90
22185;DHT22;11258;52.516;13.318;2023-08-20T06:26:35;26.00;99.90
22185;DHT22;11258;52.516;13.318;2023-08-20T06:29:01;26.00;99.90
22185;DHT22;11258;52.516;13.318;2023-08-20T06:31:27;26.00;99.90
22185;DHT22;11258;52.516;13.318;2023-08-20T06:33:52;26.00;99.90
22185;DHT22;11258;52.516;13.318;2023-08-20T06:36:18;26.00;99.90
22185;DHT22;11258;52.516;13.318;2023-08-20T06:38:44;26.10;99.90
22185;DHT22;11258;52.516;13.318;2023-08-20T06:41:09;26.10;99.90
22185;DHT22;11258;52.516;13.318;2023-08-20T06:43:35;26.00;99.90
22185;DHT22;11258;52.516;13.318;2023-08-20T06:46:00;25.90;99.90
22185;DHT22;11258;52.516;13.318;2023-08-20T06:48:26;26.00;99.90
22185;DHT22;11258;52.516;13.318;2023-08-20T06:50:52;26.00;99.90
22185;DHT22;11258;52.516;13.318;2023-08-20T06:53:17;26.00;99.90
22185;DHT22;11258;52.516;13.318;2023-08-20T06:55:43;25.90;99.90
22185;DHT22;11258;52.516;13.318;2023-08-20T06:58:09;25.90;99.90
22185;DHT22;11258;52.516;13.318;2023-08-20T07:00:34;25.90;99.90
22185;DHT22;11258;52.516;13.318;2023-08-20T07:03:00;25.80;99.90
22185;DHT22;11258;52.516;13.318;2023-08-20T07:05:25;25.70;99.90
22185;DHT22;11258;52.516;13.318;2023-08-20T07:07:51;25.60;99.90
22185;DHT22;11258;52.516;13.318;2023-08-20T07:10:16;25.50;99.90
22185;DHT22;11258;52.516;13.318;2023-08-20T07:12:42;25.40;99.90
22185;DHT22;11258;52.516;13.318;2023-08-20T07:15:08;25.30;99.90
22185;DHT22;11258;52.516;13.318;2023-08-20T07:17:34;25.30;99.90
22185;DHT22;11258;52.516;13.318;2023-08-20T07:19:59;25.50;99.90
22185;DHT22;11258;52.516;13.318;2023-08-20T07:22:25;25.90;99.90
22185;DHT22;11258;52.516;13.318;2023-08-20T07:24:50;26.10;99.90
22185;DHT22;11258;52.516;13.318;2023-08-20T07:27:16;26.00;99.90
22185;DHT22;11258;52.516;13.318;2023-08-20T07:29:42;26.00;99.90
22185;DHT22;11258;52.516;13.318;2023-08-20T07:32:07;26.00;99.90
22185;DHT22;11258;52.516;13.318;2023-08-20T07:34:33;26.20;99.90
22185;DHT22;11258;52.516;13.318;2023-08-20T07:37:00;26.40;99.90
22185;DHT22;11258;52.516;13.318;2023-08-20T07:39:26;26.40;99.90
22185;DHT22;11258;52.516;13.318;2023-08-20T07:41:51;26.40;99.90
22185;DHT22;11258;52.516;13.318;2023-08-20T07:44:17;26.60;99.90
22185;DHT22;11258;52.516;13.318;2023-08-20T07:46:43;26.60;99.90
22185;DHT22;11258;52.516;13.318;2023-08-20T07:49:09;26.90;99.90
22185;DHT22;11258;52.516;13.318;2023-08-20T07:51:34;27.50;99.90
22185;DHT22;11258;52.516;13.318;2023-08-20T07:54:00;28.70;99.90
22185;DHT22;11258;52.516;13.318;2023-08-20T07:56:26;30.40;99.90
22185;DHT22;11258;52.516;13.318;2023-08-20T07:58:52;32.40;99.90
22185;DHT22;11258;52.516;13.318;2023-08-20T08:01:17;33.60;99.90
22185;DHT22;11258;52.516;13.318;2023-08-20T08:03:43;34.10;99.90
22185;DHT22;11258;52.516;13.318;2023-08-20T08:06:08;34.50;99.90
22185;DHT22;11258;52.516;13.318;2023-08-20T08:08:34;35.60;99.90
22185;DHT22;11258;52.516;13.318;2023-08-20T08:11:00;36.10;99.90
22185;DHT22;11258;52.516;13.318;2023-08-20T08:13:26;36.40;99.90
22185;DHT22;11258;52.516;13.318;2023-08-20T08:15:52;36.80;99.90
22185;DHT22;11258;52.516;13.318;2023-08-20T08:18:20;37.00;99.90
22185;DHT22;11258;52.516;13.318;2023-08-20T08:20:46;37.30;99.90
22185;DHT22;11258;52.516;13.318;2023-08-20T08:23:12;36.80;99.90
22185;DHT22;11258;52.516;13.318;2023-08-20T08:25:38;36.90;99.90
22185;DHT22;11258;52.516;13.318;2023-08-20T08:28:04;37.40;99.90
22185;DHT22;11258;52.516;13.318;2023-08-20T08:30:30;37.00;99.90
22185;DHT22;11258;52.516;13.318;2023-08-20T08:32:56;37.00;99.90
22185;DHT22;11258;52.516;13.318;2023-08-20T08:35:21;37.40;99.90
22185;DHT22;11258;52.516;13.318;2023-08-20T08:37:47;37.50;99.90
22185;DHT22;11258;52.516;13.318;2023-08-20T08:40:13;37.30;99.90
22185;DHT22;11258;52.516;13.318;2023-08-20T08:42:40;37.40;99.90
22185;DHT22;11258;52.516;13.318;2023-08-20T08:45:06;37.20;99.90
22185;DHT22;11258;52.516;13.318;2023-08-20T08:47:32;36.70;99.90
22185;DHT22;11258;52.516;13.318;2023-08-20T08:49:59;35.50;99.90
22185;DHT22;11258;52.516;13.318;2023-08-20T08:52:25;34.60;99.90
22185;DHT22;11258;52.516;13.318;2023-08-20T08:54:54;33.50;99.90
22185;DHT22;11258;52.516;13.318;2023-08-20T08:57:19;34.70;99.90
22185;DHT22;11258;52.516;13.318;2023-08-20T08:59:45;35.70;99.90
22185;DHT22;11258;52.516;13.318;2023-08-20T09:02:12;35.30;99.90
22185;DHT22;11258;52.516;13.318;2023-08-20T09:04:39;34.60;99.90
22185;DHT22;11258;52.516;13.318;2023-08-20T09:07:05;34.20;99.90
22185;DHT22;11258;52.516;13.318;2023-08-20T09:09:36;34.60;99.90
22185;DHT22;11258;52.516;13.318;2023-08-20T09:12:12;34.60;99.90
22185;DHT22;11258;52.516;13.318;2023-08-20T09:14:39;34.50;99.90
22185;DHT22;11258;52.516;13.318;2023-08-20T09:17:04;34.40;99.90
22185;DHT22;11258;52.516;13.318;2023-08-20T09:19:35;34.00;99.90
22185;DHT22;11258;52.516;13.318;2023-08-20T09:22:03;33.90;99.90
22185;DHT22;11258;52.516;13.318;2023-08-20T09:24:44;34.10;99.90
22185;DHT22;11258;52.516;13.318;2023-08-20T09:27:09;34.20;99.90
22185;DHT22;11258;52.516;13.318;2023-08-20T09:29:48;34.10;99.90
22185;DHT22;11258;52.516;13.318;2023-08-20T09:32:16;34.60;99.90
22185;DHT22;11258;52.516;13.318;2023-08-20T09:34:41;34.40;99.90
22185;DHT22;11258;52.516;13.318;2023-08-20T09:37:12;34.60;99.90
22185;DHT22;11258;52.516;13.318;2023-08-20T09:39:38;34.40;99.90
22185;DHT22;11258;52.516;13.318;2023-08-20T09:42:05;34.60;99.90
22185;DHT22;11258;52.516;13.318;2023-08-20T09:44:36;34.70;99.90
22185;DHT22;11258;52.516;13.318;2023-08-20T09:47:05;34.80;99.90
22185;DHT22;11258;52.516;13.318;2023-08-20T09:49:35;34.70;99.90
22185;DHT22;11258;52.516;13.318;2023-08-20T09:52:04;34.50;99.90
22185;DHT22;11258;52.516;13.318;2023-08-20T09:57:01;33.80;99.90
22185;DHT22;11258;52.516;13.318;2023-08-20T09:59:27;33.80;99.90
22185;DHT22;11258;52.516;13.318;2023-08-20T10:01:53;33.60;99.90
22185;DHT22;11258;52.516;13.318;2023-08-20T10:04:20;33.60;99.90
22185;DHT22;11258;52.516;13.318;2023-08-20T10:06:46;33.80;99.90
22185;DHT22;11258;52.516;13.318;2023-08-20T10:09:13;33.80;99.90
22185;DHT22;11258;52.516;13.318;2023-08-20T10:11:40;33.00;99.90
22185;DHT22;11258;52.516;13.318;2023-08-20T10:14:05;33.20;99.90
22185;DHT22;11258;52.516;13.318;2023-08-20T10:16:33;33.20;99.90
22185;DHT22;11258;52.516;13.318;2023-08-20T10:19:05;33.20;99.90
22185;DHT22;11258;52.516;13.318;2023-08-20T10:21:32;33.30;99.90
22185;DHT22;11258;52.516;13.318;2023-08-20T10:24:03;33.20;99.90
22185;DHT22;11258;52.516;13.318;2023-08-20T10:26:29;32.80;99.90
22185;DHT22;11258;52.516;13.318;2023-08-20T10:29:34;32.60;99.90
22185;DHT22;11258;52.516;13.318;2023-08-20T10:31:59;32.20;99.90
22185;DHT22;11258;52.516;13.318;2023-08-20T10:34:36;32.30;99.90
22185;DHT22;11258;52.516;13.318;2023-08-20T10:37:15;32.70;99.90
22185;DHT22;11258;52.516;13.318;2023-08-20T10:39:41;32.80;99.90
22185;DHT22;11258;52.516;13.318;2023-08-20T10:45:06;33.00;99.90
22185;DHT22;11258;52.516;13.318;2023-08-20T10:47:47;33.20;99.90
22185;DHT22;11258;52.516;13.318;2023-08-20T10:50:18;33.20;99.90
22185;DHT22;11258;52.516;13.318;2023-08-20T10:52:48;33.10;99.90
22185;DHT22;11258;52.516;13.318;2023-08-20T10:55:15;32.90;99.90
22185;DHT22;11258;52.516;13.318;2023-08-20T10:57:41;33.10;99.90
22185;DHT22;11258;52.516;13.318;2023-08-20T11:00:07;33.30;99.90
22185;DHT22;11258;52.516;13.318;2023-08-20T11:02:41;33.30;99.90
22185;DHT22;11258;52.516;13.318;2023-08-20T11:05:20;32.80;99.90
22185;DHT22;11258;52.516;13.318;2023-08-20T11:07:49;33.00;99.90
22185;DHT22;11258;52.516;13.318;2023-08-20T11:10:15;33.20;99.90
22185;DHT22;11258;52.516;13.318;2023-08-20T11:12:42;32.90;99.90
22185;DHT22;11258;52.516;13.318;2023-08-20T11:15:11;32.80;99.90
22185;DHT22;11258;52.516;13.318;2023-08-20T11:17:45;32.70;99.90
22185;DHT22;11258;52.516;13.318;2023-08-20T11:20:13;32.90;99.90
22185;DHT22;11258;52.516;13.318;2023-08-20T11:22:39;32.80;99.90
22185;DHT22;11258;52.516;13.318;2023-08-20T11:25:09;32.80;99.90
22185;DHT22;11258;52.516;13.318;2023-08-20T11:27:35;32.60;99.90
22185;DHT22;11258;52.516;13.318;2023-08-20T11:30:00;32.60;99.90
22185;DHT22;11258;52.516;13.318;2023-08-20T11:32:30;32.50;99.90
22185;DHT22;11258;52.516;13.318;2023-08-20T11:34:56;32.60;99.90
22185;DHT22;11258;52.516;13.318;2023-08-20T11:37:21;32.50;99.90
22185;DHT22;11258;52.516;13.318;2023-08-20T11:39:48;32.50;99.90
22185;DHT22;11258;52.516;13.318;2023-08-20T11:42:15;32.60;99.90
22185;DHT22;11258;52.516;13.318;2023-08-20T11:44:46;32.60;99.90
22185;DHT22;11258;52.516;13.318;2023-08-20T11:47:16;32.60;99.90
22185;DHT22;11258;52.516;13.318;2023-08-20T11:49:42;32.40;99.90
22185;DHT22;11258;52.516;13.318;2023-08-20T11:52:08;32.00;99.90
22185;DHT22;11258;52.516;13.318;2023-08-20T11:54:35;32.10;99.90
22185;DHT22;11258;52.516;13.318;2023-08-20T11:57:03;32.00;99.90
22185;DHT22;11258;52.516;13.318;2023-08-20T11:59:29;32.10;99.90
22185;DHT22;11258;52.516;13.318;2023-08-20T12:01:59;32.30;99.90
22185;DHT22;11258;52.516;13.318;2023-08-20T12:04:28;32.20;99.90
22185;DHT22;11258;52.516;13.318;2023-08-20T12:07:13;31.90;99.90
22185;DHT22;11258;52.516;13.318;2023-08-20T12:09:39;31.90;99.90
22185;DHT22;11258;52.516;13.318;2023-08-20T12:12:06;31.80;99.90
22185;DHT22;11258;52.516;13.318;2023-08-20T12:14:32;31.80;99.90
22185;DHT22;11258;52.516;13.318;2023-08-20T12:16:58;31.80;99.90
22185;DHT22;11258;52.516;13.318;2023-08-20T12:19:24;31.90;99.90
22185;DHT22;11258;52.516;13.318;2023-08-20T12:21:50;31.90;99.90
22185;DHT22;11258;52.516;13.318;2023-08-20T12:24:16;32.00;99.90
22185;DHT22;11258;52.516;13.318;2023-08-20T12:26:42;32.00;99.90
22185;DHT22;11258;52.516;13.318;2023-08-20T12:29:08;32.00;99.90
22185;DHT22;11258;52.516;13.318;2023-08-20T12:31:34;32.10;99.90
22185;DHT22;11258;52.516;13.318;2023-08-20T12:34:00;32.00;99.90
22185;DHT22;11258;52.516;13.318;2023-08-20T12:36:26;32.10;99.90
22185;DHT22;11258;52.516;13.318;2023-08-20T12:38:52;31.90;99.90
22185;DHT22;11258;52.516;13.318;2023-08-20T12:41:19;31.80;99.90
22185;DHT22;11258;52.516;13.318;2023-08-20T12:43:44;31.80;99.90
22185;DHT22;11258;52.516;13.318;2023-08-20T12:46:10;31.70;99.90
22185;DHT22;11258;52.516;13.318;2023-08-20T12:48:37;31.50;99.90
22185;DHT22;11258;52.516;13.318;2023-08-20T12:51:03;31.50;99.90
22185;DHT22;11258;52.516;13.318;2023-08-20T12:53:28;31.40;99.90
22185;DHT22;11258;52.516;13.318;2023-08-20T12:55:54;31.40;99.90
22185;DHT22;11258;52.516;13.318;2023-08-20T12:58:19;31.30;99.90
22185;DHT22;11258;52.516;13.318;2023-08-20T13:00:46;31.20;99.90
22185;DHT22;11258;52.516;13.318;2023-08-20T13:03:12;31.00;99.90
22185;DHT22;11258;52.516;13.318;2023-08-20T13:05:38;30.90;99.90
22185;DHT22;11258;52.516;13.318;2023-08-20T13:08:04;30.90;99.90
22185;DHT22;11258;52.516;13.318;2023-08-20T13:10:30;30.80;99.90
22185;DHT22;11258;52.516;13.318;2023-08-20T13:13:00;30.90;99.90
22185;DHT22;11258;52.516;13.318;2023-08-20T13:15:26;30.90;99.90
22185;DHT22;11258;52.516;13.318;2023-08-20T13:17:53;30.70;99.90
22185;DHT22;11258;52.516;13.318;2023-08-20T13:20:19;30.80;99.90
22185;DHT22;11258;52.516;13.318;2023-08-20T13:22:48;30.80;99.90
22185;DHT22;11258;52.516;13.318;2023-08-20T13:25:14;30.90;99.90
22185;DHT22;11258;52.516;13.318;2023-08-20T13:27:40;30.80;99.90
22185;DHT22;11258;52.516;13.318;2023-08-20T13:30:07;30.70;99.90
22185;DHT22;11258;52.516;13.318;2023-08-20T13:32:34;30.70;99.90
22185;DHT22;11258;52.516;13.318;2023-08-20T13:35:00;30.70;99.90
22185;DHT22;11258;52.516;13.318;2023-08-20T13:37:25;30.60;99.90
22185;DHT22;11258;52.516;13.318;2023-08-20T13:39:51;30.70;99.90
22185;DHT22;11258;52.516;13.318;2023-08-20T13:42:16;30.60;99.90
22185;DHT22;11258;52.516;13.318;2023-08-20T13:44:42;30.60;99.90
22185;DHT22;11258;52.516;13.318;2023-08-20T13:47:08;30.70;99.90
22185;DHT22;11258;52.516;13.318;2023-08-20T13:49:34;30.90;99.90
22185;DHT22;11258;52.516;13.318;2023-08-20T13:52:00;30.90;99.90
22185;DHT22;11258;52.516;13.318;2023-08-20T13:54:25;30.90;99.90
22185;DHT22;11258;52.516;13.318;2023-08-20T13:56:51;31.00;99.90
22185;DHT22;11258;52.516;13.318;2023-08-20T13:59:17;31.10;99.90
22185;DHT22;11258;52.516;13.318;2023-08-20T14:01:42;31.20;99.90
22185;DHT22;11258;52.516;13.318;2023-08-20T14:04:08;31.20;99.90
22185;DHT22;11258;52.516;13.318;2023-08-20T14:06:33;31.20;99.90
22185;DHT22;11258;52.516;13.318;2023-08-20T14:08:59;31.20;99.90
22185;DHT22;11258;52.516;13.318;2023-08-20T14:11:25;31.20;99.90
22185;DHT22;11258;52.516;13.318;2023-08-20T14:13:51;31.30;99.90
22185;DHT22;11258;52.516;13.318;2023-08-20T14:16:16;31.20;99.40
22185;DHT22;11258;52.516;13.318;2023-08-20T14:18:42;31.10;99.10
22185;DHT22;11258;52.516;13.318;2023-08-20T14:21:08;31.10;99.70
22185;DHT22;11258;52.516;13.318;2023-08-20T14:23:33;31.20;99.50
22185;DHT22;11258;52.516;13.318;2023-08-20T14:26:00;31.40;98.80
22185;DHT22;11258;52.516;13.318;2023-08-20T14:28:26;31.30;98.00
22185;DHT22;11258;52.516;13.318;2023-08-20T14:30:52;31.00;97.90
22185;DHT22;11258;52.516;13.318;2023-08-20T14:33:19;31.20;97.80
22185;DHT22;11258;52.516;13.318;2023-08-20T14:35:46;31.10;97.60
22185;DHT22;11258;52.516;13.318;2023-08-20T14:38:12;31.20;96.80
22185;DHT22;11258;52.516;13.318;2023-08-20T14:40:39;31.30;96.60
22185;DHT22;11258;52.516;13.318;2023-08-20T14:43:08;31.40;95.80
22185;DHT22;11258;52.516;13.318;2023-08-20T14:45:34;31.30;96.20
22185;DHT22;11258;52.516;13.318;2023-08-20T14:48:00;31.20;96.60
22185;DHT22;11258;52.516;13.318;2023-08-20T14:50:26;31.10;96.70
22185;DHT22;11258;52.516;13.318;2023-08-20T14:52:51;31.20;96.20
22185;DHT22;11258;52.516;13.318;2023-08-20T14:55:21;31.30;96.20
22185;DHT22;11258;52.516;13.318;2023-08-20T14:57:46;31.40;95.80
22185;DHT22;11258;52.516;13.318;2023-08-20T15:00:13;31.50;96.50
22185;DHT22;11258;52.516;13.318;2023-08-20T15:02:46;31.50;96.50
22185;DHT22;11258;52.516;13.318;2023-08-20T15:05:12;31.40;96.40
22185;DHT22;11258;52.516;13.318;2023-08-20T15:07:37;31.50;96.00
22185;DHT22;11258;52.516;13.318;2023-08-20T15:10:04;31.50;96.10
22185;DHT22;11258;52.516;13.318;2023-08-20T15:12:33;31.50;96.40
22185;DHT22;11258;52.516;13.318;2023-08-20T15:15:00;31.60;96.80
22185;DHT22;11258;52.516;13.318;2023-08-20T15:17:25;31.70;96.60
22185;DHT22;11258;52.516;13.318;2023-08-20T15:19:51;31.70;96.80
22185;DHT22;11258;52.516;13.318;2023-08-20T15:22:17;31.70;95.20
22185;DHT22;11258;52.516;13.318;2023-08-20T15:24:42;31.60;95.70